Wednesday, November 14, 2018, 9:02 PM EST
Back to Local

KMSS, Massena International -richards Fld

Location: Massena, NY, United States Lat: 44.933
Local Time: 9:02 PM EST ( 2:02 GMT) Lon: -74.85
Time Zone: US/Eastern Elev: 213 ft

Show me the last for .
Show Decoded

2018-11-14 19:53 METAR KMSS 150053Z AUTO 30005KT 10SM CLR M08/M14 A3062 RMK AO2 SLP377 T10831144
                 =
2018-11-14 18:53 METAR KMSS 142353Z AUTO 31007KT 10SM CLR M08/M15 A3059 RMK AO2 SLP366 T10781150
                 11056 21083 51014 =
2018-11-14 17:53 METAR KMSS 142253Z AUTO 30008KT 10SM CLR M08/M14 A3058 RMK AO2 SLP364 T10781144
                 =
2018-11-14 16:53 METAR KMSS 142153Z AUTO 29010KT 10SM CLR M07/M14 A3057 RMK AO2 SLP360 T10721144
                 =
2018-11-14 15:53 METAR KMSS 142053Z AUTO 29016KT 10SM CLR M06/M15 A3054 RMK AO2 SLP351 T10611150
                 51024 =
2018-11-14 14:53 METAR KMSS 141953Z AUTO 30013KT 10SM FEW043 M06/M14 A3052 RMK AO2 SLP344
                 T10561144 =
2018-11-14 13:53 METAR KMSS 141853Z AUTO 29017G23KT 10SM FEW041 M06/M14 A3050 RMK AO2 SLP338
                 T10611139 =
2018-11-14 12:53 METAR KMSS 141753Z AUTO 29013KT 10SM OVC042 M07/M14 A3047 RMK AO2 PK WND
                 28028/1722 SLP327 60000 T10671139 11067 21089 51011 =
2018-11-14 11:53 METAR KMSS 141653Z AUTO 27012KT 10SM OVC040 M07/M14 A3047 RMK AO2 SLP327
                 T10721139 =
2018-11-14 10:53 METAR KMSS 141553Z AUTO 29013G24KT 10SM BKN036 BKN044 M08/M15 A3046 RMK AO2 PK
                 WND 26026/1501 SLP322 T10781150 =
2018-11-14 09:53 METAR KMSS 141453Z AUTO 29015G23KT 10SM BKN034 M08/M14 A3044 RMK AO2 SLP316
                 60000 T10831144 53024 =
2018-11-14 09:34 METAR KMSS 141434Z AUTO 29014KT 10SM BKN032 M08/M14 A3042 RMK AO2 T10781144 =
2018-11-14 08:53 METAR KMSS 141353Z AUTO 28011KT 10SM BKN025 OVC030 M08/M13 A3041 RMK AO2 SNE46
                 SLP306 P0000 T10831128 =
2018-11-14 07:53 METAR KMSS 141253Z AUTO 29007KT 4SM -SN BKN029 OVC034 M09/M13 A3037 RMK AO2
                 SNE09B46 SLP293 P0000 T10891128 =
2018-11-14 07:49 METAR KMSS 141249Z AUTO 29008KT 6SM -SN BKN029 OVC034 M09/M13 A3037 RMK AO2
                 SNE09B46 P0000 =
2018-11-14 07:14 METAR KMSS 141214Z AUTO 32008KT 9SM FEW023 OVC034 M09/M12 A3035 RMK AO2 SNE09
                 PRESRR P0000 T10891122 =
2018-11-14 06:53 METAR KMSS 141153Z AUTO 30009KT 7SM -SN FEW010 BKN027 OVC034 M08/M11 A3032 RMK
                 AO2 SNB20 SLP275 P0000 60000 70002 T10831111 11061 21083 53030 =
2018-11-14 06:48 METAR KMSS 141148Z AUTO 32007KT 3SM -SN SCT015 BKN026 OVC036 M08/M11 A3032 RMK
                 AO2 SNB20 P0000 =
2018-11-14 06:36 METAR KMSS 141136Z AUTO 33008G18KT 1 3/4SM -SN SCT018 BKN025 OVC041 M08/M11
                 A3031 RMK AO2 SNB20 P0000 T10781106 =
2018-11-14 06:34 METAR KMSS 141134Z AUTO 33010KT 2 1/2SM -SN FEW017 BKN030 OVC041 M08/M11 A3031
                 RMK AO2 SNB20 P0000 T10781106 =
2018-11-14 05:53 METAR KMSS 141053Z AUTO 26007KT 10SM FEW023 OVC044 M08/M11 A3029 RMK AO2 SNE43
                 SLP263 P0000 T10781106 =
2018-11-14 05:43 METAR KMSS 141043Z AUTO 27005KT 9SM FEW017 SCT023 OVC043 M08/M11 A3028 RMK AO2
                 SNE43 P0000 T10781106 =
2018-11-14 04:53 METAR KMSS 140953Z AUTO 30005KT 5SM -SN FEW021 OVC025 M08/M11 A3026 RMK AO2
                 SNB17 SLP253 P0000 T10781106 =
2018-11-14 04:26 METAR KMSS 140926Z AUTO 30006KT 5SM -SN OVC029 M08/M11 A3025 RMK AO2 SNB17 P0000
                 T10781111 =
2018-11-14 03:53 METAR KMSS 140853Z AUTO 31008KT 10SM BKN031 OVC060 M08/M12 A3023 RMK AO2
                 SNB23E46 SLP244 P0000 60000 T10781117 51014 =
2018-11-14 03:50 METAR KMSS 140850Z AUTO 31007KT 9SM BKN029 OVC060 M08/M12 A3023 RMK AO2 SNB23E46
                 P0000 =
2018-11-14 02:53 METAR KMSS 140753Z AUTO 32007KT 10SM SCT046 BKN075 M07/M12 A3021 RMK AO2
                 SNB00E10 SLP235 P0000 T10721122 =
2018-11-14 01:53 METAR KMSS 140653Z AUTO 32008KT 10SM OVC036 M07/M12 A3019 RMK AO2 SNB20E47
                 SLP229 P0000 T10671122 =
2018-11-14 00:53 METAR KMSS 140553Z AUTO 31008KT 10SM SCT028 OVC040 M06/M11 A3017 RMK AO2
                 SNB35E47 SLP224 P0000 60000 T10611106 11022 21061 53009 =
2018-11-13 23:53 METAR KMSS 140453Z AUTO 30008KT 10SM SCT055 OVC075 M05/M11 A3016 RMK AO2 SLP218
                 T10501111 400391056 =
2018-11-13 22:53 METAR KMSS 140353Z AUTO 29005KT 10SM OVC075 M06/M11 A3014 RMK AO2 SLP214
                 T10561106 =
2018-11-13 21:53 METAR KMSS 140253Z AUTO 31008KT 10SM FEW070 M06/M11 A3015 RMK AO2 SLP215
                 T10561106 51023 =

Support USWX by starting your Amazon purchase here.